Terminal Aerodrome Forecast
Issued by NWS

Home | Current Version | Previous Version | Text Only | Print | Product List | Glossary On
Versions: 1 2 3 4 5 6 7 8 9 10 11 12 13 14 15
105
FTUS43 KICT 100522
TAFHUT
TAF
KHUT 100522Z 1006/1106 15006KT P6SM SCT150
     FM101200 15006KT P6SM BKN015
     FM101600 17015G23KT P6SM BKN020
     FM102000 17015G23KT P6SM SCT060
     FM110000 16011KT P6SM SCT250=

USA.gov is the U.S. government's official web portal to all federal, state and local government web resources and services.